Time;durP1;ratioP1;P1;durP2;ratioP2;P2;SDS_P1;SDS_P2;PMS_P1;PMS_P2;Temp;Humidity;BMP_temperature;BMP_pressure;BME280_temperature;BME280_humidity;BME280_pressure;Samples;Min_cycle;Max_cycle;Signal;HPM_P1;HPM_P2
2022/03/23 00:01:17;;;;;;;22.10;16.20;;;;;;;6.61;51.18;102733.75;4965083;28;20293;-50
2022/03/23 00:03:46;;;;;;;24.67;17.57;;;;;;;6.64;50.46;102728.69;4965522;28;20902;-50
2022/03/23 00:06:13;;;;;;;26.53;17.80;;;;;;;6.61;50.78;102722.44;4964424;28;20239;-50
2022/03/23 00:08:40;;;;;;;27.47;17.47;;;;;;;6.56;51.12;102729.13;4965513;28;20999;-49
2022/03/23 00:11:07;;;;;;;25.57;17.10;;;;;;;6.51;50.64;102721.09;4965217;28;20644;-51
2022/03/23 00:13:34;;;;;;;30.27;18.03;;;;;;;6.52;50.39;102720.25;4960425;28;20289;-50
2022/03/23 00:16:00;;;;;;;21.47;17.57;;;;;;;6.50;49.15;102719.31;4955944;28;20235;-51
2022/03/23 00:18:28;;;;;;;28.50;17.97;;;;;;;6.49;48.38;102721.84;4965282;28;20234;-50
2022/03/23 00:20:55;;;;;;;22.97;18.07;;;;;;;6.44;48.40;102719.91;4964922;28;20277;-51
2022/03/23 00:23:21;;;;;;;24.33;16.03;;;;;;;6.41;49.43;102718.88;4965479;28;20247;-51
2022/03/23 00:25:48;;;;;;;23.03;17.70;;;;;;;6.41;50.07;102718.88;4963824;28;20297;-51
2022/03/23 00:28:14;;;;;;;25.83;19.30;;;;;;;6.42;51.06;102720.66;4964590;28;20782;-50
2022/03/23 00:30:41;;;;;;;28.50;20.13;;;;;;;6.43;52.05;102719.84;4963738;28;20709;-51
2022/03/23 00:33:08;;;;;;;28.73;21.53;;;;;;;6.42;52.66;102715.44;4960634;28;20230;-51
2022/03/23 00:35:35;;;;;;;25.80;17.97;;;;;;;6.43;52.50;102717.25;4964177;28;20292;-51
2022/03/23 00:38:02;;;;;;;26.77;19.63;;;;;;;6.37;52.69;102716.94;4964994;28;20321;-51
2022/03/23 00:40:29;;;;;;;27.73;19.63;;;;;;;6.31;53.13;102711.41;4965415;28;20238;-51
2022/03/23 00:43:01;;;;;;;30.00;19.77;;;;;;;6.24;53.57;102715.44;4964577;28;20234;-51
2022/03/23 00:45:28;;;;;;;30.43;20.97;;;;;;;6.15;53.89;102710.69;4964255;28;20238;-51
2022/03/23 00:47:55;;;;;;;34.33;19.73;;;;;;;6.14;55.03;102714.13;4964731;28;20242;-51
2022/03/23 00:50:21;;;;;;;26.37;18.83;;;;;;;6.12;55.22;102710.53;4963851;28;20238;-51
2022/03/23 00:52:49;;;;;;;30.33;20.23;;;;;;;6.11;54.97;102703.53;4963569;28;20242;-52
2022/03/23 00:55:16;;;;;;;27.13;19.77;;;;;;;6.12;54.80;102700.09;4963525;28;20262;-51
2022/03/23 00:57:44;;;;;;;28.10;20.07;;;;;;;6.13;54.88;102696.66;4964399;28;20341;-52
2022/03/23 01:00:12;;;;;;;23.40;19.47;;;;;;;6.14;54.51;102700.16;4965129;28;20269;-51
2022/03/23 01:02:39;;;;;;;28.93;20.17;;;;;;;6.23;53.60;102692.78;4959766;28;20245;-51
2022/03/23 01:05:07;;;;;;;27.63;20.53;;;;;;;6.18;53.18;102689.97;4959992;28;20247;-51
2022/03/23 01:07:34;;;;;;;26.13;20.83;;;;;;;6.13;53.96;102691.44;4961586;28;20324;-51
2022/03/23 01:10:02;;;;;;;32.73;19.97;;;;;;;6.11;54.45;102687.88;4968166;28;20712;-51
2022/03/23 01:12:30;;;;;;;26.00;19.60;;;;;;;6.00;55.35;102680.34;4968597;28;20238;-51
2022/03/23 01:14:57;;;;;;;27.77;21.37;;;;;;;5.93;55.82;102682.66;4968173;28;20234;-51
2022/03/23 01:17:24;;;;;;;26.10;19.77;;;;;;;5.85;56.14;102688.28;4968546;28;20234;-51
2022/03/23 01:19:50;;;;;;;24.83;19.77;;;;;;;5.81;56.22;102686.34;4966280;28;20267;-51
2022/03/23 01:22:17;;;;;;;26.00;19.17;;;;;;;5.81;57.02;102683.72;4967953;28;20234;-51
2022/03/23 01:24:44;;;;;;;26.77;20.27;;;;;;;5.76;56.50;102678.28;4967563;28;20329;-51
2022/03/23 01:27:11;;;;;;;25.33;20.03;;;;;;;5.72;56.67;102681.53;4969245;28;20234;-51
2022/03/23 01:29:38;;;;;;;26.53;19.97;;;;;;;5.67;56.83;102677.81;4967260;28;20285;-51
2022/03/23 01:32:05;;;;;;;27.37;21.07;;;;;;;5.68;57.11;102677.88;4965034;28;20703;-51
2022/03/23 01:34:31;;;;;;;29.13;20.30;;;;;;;5.72;57.25;102673.72;4968308;28;20243;-51
2022/03/23 01:36:58;;;;;;;26.30;19.97;;;;;;;5.75;57.46;102672.16;4966724;28;20269;-51
2022/03/23 01:39:25;;;;;;;27.30;19.77;;;;;;;5.71;58.02;102680.66;4966912;28;20772;-51
2022/03/23 01:41:52;;;;;;;24.77;18.97;;;;;;;5.62;57.53;102680.22;4967128;28;20268;-49
2022/03/23 01:44:21;;;;;;;29.00;20.50;;;;;;;5.66;57.92;102681.25;4967256;28;20238;-51
2022/03/23 01:47:01;;;;;;;26.77;21.20;;;;;;;5.66;58.51;102671.72;4967030;28;20242;-52
2022/03/23 01:49:28;;;;;;;21.33;18.30;;;;;;;5.66;58.14;102670.84;4967955;28;20315;-51
2022/03/23 01:51:55;;;;;;;26.57;19.67;;;;;;;5.67;57.73;102672.63;4965119;28;20242;-51
2022/03/23 01:54:21;;;;;;;24.80;18.67;;;;;;;5.67;56.68;102672.63;4967890;28;20234;-51
2022/03/23 01:56:49;;;;;;;31.03;20.87;;;;;;;5.68;56.48;102675.28;4966690;28;20230;-51
2022/03/23 01:59:16;;;;;;;23.27;18.23;;;;;;;5.71;56.73;102670.22;4967075;28;20258;-51
2022/03/23 02:01:49;;;;;;;28.80;19.40;;;;;;;5.72;57.41;102677.25;4966075;28;20245;-52
2022/03/23 02:04:16;;;;;;;30.87;21.17;;;;;;;5.70;58.25;102673.66;4967205;28;20238;-51
2022/03/23 02:06:43;;;;;;;28.20;19.37;;;;;;;5.69;59.18;102671.88;4966978;28;20372;-51
2022/03/23 02:09:09;;;;;;;29.90;21.07;;;;;;;5.74;59.27;102664.28;4962653;28;20313;-51
2022/03/23 02:11:36;;;;;;;30.10;22.27;;;;;;;5.77;59.19;102668.75;4963495;28;20282;-51
2022/03/23 02:14:03;;;;;;;29.10;21.47;;;;;;;5.72;59.43;102674.66;4967514;28;20261;-51
2022/03/23 02:16:29;;;;;;;26.60;21.50;;;;;;;5.67;58.23;102673.50;4965484;28;20222;-51
2022/03/23 02:18:57;;;;;;;28.47;21.07;;;;;;;5.57;57.83;102665.16;4966013;28;20331;-51
2022/03/23 02:21:23;;;;;;;30.80;21.10;;;;;;;5.51;57.99;102663.16;4965821;28;20252;-51
2022/03/23 02:23:51;;;;;;;31.53;22.77;;;;;;;5.42;57.48;102668.75;4967704;28;20247;-51
2022/03/23 02:26:18;;;;;;;31.57;23.03;;;;;;;5.37;56.81;102661.53;4964912;28;20325;-50
2022/03/23 02:28:44;;;;;;;29.20;23.87;;;;;;;5.38;57.33;102668.53;4966482;28;20242;-51
2022/03/23 02:31:11;;;;;;;28.57;23.37;;;;;;;5.28;57.91;102661.97;4967169;28;20451;-56
2022/03/23 02:33:37;;;;;;;32.77;23.80;;;;;;;5.24;58.36;102654.81;4967195;28;20238;-50
2022/03/23 02:36:05;;;;;;;37.33;23.90;;;;;;;5.20;58.64;102658.97;4967036;28;20297;-51
2022/03/23 02:38:31;;;;;;;28.60;23.23;;;;;;;5.15;58.36;102657.81;4967477;28;20234;-51
2022/03/23 02:40:59;;;;;;;35.13;23.97;;;;;;;5.11;58.89;102658.47;4966535;28;20231;-51
2022/03/23 02:43:25;;;;;;;33.27;23.70;;;;;;;5.02;59.44;102660.63;4965250;28;20320;-50
2022/03/23 02:45:52;;;;;;;29.93;22.00;;;;;;;4.93;59.08;102658.41;4965743;28;20243;-50
2022/03/23 02:48:18;;;;;;;28.87;21.60;;;;;;;4.86;58.86;102668.41;4966609;28;20230;-51
2022/03/23 02:50:44;;;;;;;25.10;20.20;;;;;;;4.78;58.72;102662.81;4966317;28;20245;-51
2022/03/23 03:04:18;;;;;;;25.70;18.23;;;;;;;4.57;60.00;102662.53;4961937;28;20241;-50
2022/03/23 03:06:45;;;;;;;29.40;20.60;;;;;;;4.49;60.70;102659.53;4966500;28;20246;-51
2022/03/23 03:09:12;;;;;;;24.37;18.37;;;;;;;4.48;60.81;102657.72;4963634;28;20254;-52
2022/03/23 03:11:39;;;;;;;23.37;19.37;;;;;;;4.47;60.12;102660.25;4966842;28;20717;-51
2022/03/23 03:14:06;;;;;;;23.30;19.57;;;;;;;4.50;60.34;102661.31;4966273;28;20235;-50
2022/03/23 03:16:33;;;;;;;27.83;19.90;;;;;;;4.51;61.08;102662.19;4964899;28;20226;-50
2022/03/23 03:18:59;;;;;;;26.57;18.53;;;;;;;4.43;61.00;102661.78;4962961;28;20234;-50
2022/03/23 03:21:26;;;;;;;26.30;18.23;;;;;;;4.40;61.57;102663.31;4966485;28;20288;-49
2022/03/23 03:23:52;;;;;;;24.03;19.27;;;;;;;4.42;61.95;102661.69;4965251;28;20238;-50
2022/03/23 03:26:19;;;;;;;21.53;17.53;;;;;;;4.37;62.19;102657.94;4965551;28;20277;-50
2022/03/23 03:28:46;;;;;;;22.27;18.40;;;;;;;4.33;60.95;102656.00;4961411;28;20665;-50
2022/03/23 03:31:15;;;;;;;23.03;17.63;;;;;;;4.28;59.99;102648.84;4965897;28;20230;-50
2022/03/23 03:33:42;;;;;;;22.87;18.97;;;;;;;4.25;60.61;102664.25;4964753;28;20279;-51
2022/03/23 03:36:08;;;;;;;27.53;18.57;;;;;;;4.20;59.90;102657.91;4964399;28;20289;-50
2022/03/23 03:38:36;;;;;;;27.67;18.50;;;;;;;4.17;60.62;102660.31;4965031;28;20238;-50
2022/03/23 03:41:03;;;;;;;25.87;18.40;;;;;;;4.24;60.11;102667.66;4962254;28;20609;-50
2022/03/23 03:43:30;;;;;;;24.73;17.73;;;;;;;4.23;59.73;102670.19;4985062;23;20230;-50
2022/03/23 03:45:56;;;;;;;25.60;19.03;;;;;;;4.17;60.06;102662.91;4984670;28;20242;-50
2022/03/23 03:48:25;;;;;;;21.07;17.43;;;;;;;4.17;60.68;102657.72;4975354;28;20238;-50
2022/03/23 03:50:51;;;;;;;25.30;19.13;;;;;;;4.20;61.67;102655.28;4983038;28;20238;-50
2022/03/23 03:53:18;;;;;;;26.50;19.40;;;;;;;4.19;61.55;102657.81;4983432;28;20238;-51
2022/03/23 03:55:44;;;;;;;29.03;19.17;;;;;;;4.23;61.50;102663.28;4991167;28;20254;-49
2022/03/23 03:58:12;;;;;;;25.63;19.23;;;;;;;4.16;61.89;102663.72;4984983;28;20754;-50
2022/03/23 04:00:39;;;;;;;25.20;18.83;;;;;;;4.11;61.99;102662.59;4986321;28;20317;-49
2022/03/23 04:03:06;;;;;;;24.53;17.17;;;;;;;4.11;62.02;102666.88;4984826;28;20731;-51
2022/03/23 04:05:34;;;;;;;27.27;18.20;;;;;;;4.06;62.43;102661.44;4984238;28;20240;-51
2022/03/23 04:08:01;;;;;;;24.83;18.10;;;;;;;4.07;63.12;102668.41;4984598;28;20656;-51
2022/03/23 04:10:27;;;;;;;24.27;19.73;;;;;;;3.99;63.11;102669.69;4983627;28;20295;-50
2022/03/23 04:12:54;;;;;;;28.40;19.37;;;;;;;3.95;63.06;102668.63;4984025;28;20241;-51
2022/03/23 04:15:21;;;;;;;26.03;18.33;;;;;;;3.92;63.03;102667.53;4985243;28;20233;-51
2022/03/23 04:17:47;;;;;;;24.63;18.20;;;;;;;3.86;63.30;102683.69;4984291;28;20236;-51
2022/03/23 04:20:14;;;;;;;20.80;17.03;;;;;;;3.78;62.71;102682.34;4985045;28;20287;-52
2022/03/23 04:22:41;;;;;;;38.03;17.73;;;;;;;3.73;63.55;102682.09;4984794;28;20244;-50
2022/03/23 04:25:10;;;;;;;24.77;18.63;;;;;;;3.71;62.91;102686.28;4984459;28;20229;-51
2022/03/23 04:27:45;;;;;;;24.23;17.80;;;;;;;3.69;62.71;102680.13;4983305;28;20229;-50
2022/03/23 04:30:13;;;;;;;23.67;17.27;;;;;;;3.66;62.40;102687.72;4979173;28;20235;-51
2022/03/23 04:32:39;;;;;;;24.10;17.40;;;;;;;3.65;62.12;102680.75;4980421;28;20242;-49
2022/03/23 04:35:06;;;;;;;21.60;17.43;;;;;;;3.58;62.20;102683.78;4984530;28;20233;-50
2022/03/23 04:37:32;;;;;;;21.83;17.63;;;;;;;3.57;62.38;102684.56;4984135;28;20311;-51
2022/03/23 04:40:00;;;;;;;25.00;18.63;;;;;;;3.55;61.88;102688.81;4984322;28;20275;-49
2022/03/23 04:42:27;;;;;;;29.07;18.00;;;;;;;3.54;61.59;102695.66;4984168;28;20279;-51
2022/03/23 04:44:53;;;;;;;22.00;18.03;;;;;;;3.52;62.56;102686.03;4985981;28;20236;-50
2022/03/23 04:47:19;;;;;;;21.73;17.20;;;;;;;3.48;62.69;102689.25;4988902;28;20242;-51
2022/03/23 04:49:46;;;;;;;23.17;17.83;;;;;;;3.42;62.83;102688.88;4981897;28;20248;-51
2022/03/23 04:52:13;;;;;;;27.53;18.23;;;;;;;3.39;63.18;102688.69;4990054;28;20306;-53
2022/03/23 04:54:40;;;;;;;18.97;16.50;;;;;;;3.39;63.19;102689.59;4988775;28;20240;-51
2022/03/23 04:57:08;;;;;;;22.37;16.67;;;;;;;3.41;63.59;102677.59;4988522;28;20313;-51
2022/03/23 04:59:34;;;;;;;21.70;17.83;;;;;;;3.44;63.09;102682.97;4991153;28;20232;-50
2022/03/23 05:02:00;;;;;;;24.10;16.83;;;;;;;3.49;62.47;102685.84;4991187;28;21043;-50
2022/03/23 05:04:27;;;;;;;24.27;18.53;;;;;;;3.56;62.17;102688.00;4988473;28;20240;-50
2022/03/23 05:06:53;;;;;;;24.10;17.47;;;;;;;3.57;61.45;102690.66;4987984;28;20779;-50
2022/03/23 05:09:19;;;;;;;25.77;18.17;;;;;;;3.59;61.97;102696.84;4988992;28;20257;-50
2022/03/23 05:11:46;;;;;;;28.13;17.70;;;;;;;3.56;60.97;102695.78;4987582;28;20291;-49
2022/03/23 05:14:14;;;;;;;30.77;17.30;;;;;;;3.51;61.74;102694.59;4988286;28;20234;-51
2022/03/23 05:16:41;;;;;;;26.00;16.77;;;;;;;3.49;62.26;102691.03;4989105;28;20229;-50
2022/03/23 05:19:07;;;;;;;24.17;17.70;;;;;;;3.51;62.37;102689.41;4987332;28;20292;-50
2022/03/23 05:21:34;;;;;;;24.53;17.50;;;;;;;3.55;62.46;102694.00;4988954;28;20236;-50
2022/03/23 05:24:00;;;;;;;28.17;19.00;;;;;;;3.60;62.47;102692.56;4988427;28;20239;-50
2022/03/23 05:26:27;;;;;;;27.80;19.33;;;;;;;3.59;62.73;102689.06;4988269;28;20297;-57
2022/03/23 05:28:53;;;;;;;23.63;17.10;;;;;;;3.68;62.60;102687.81;4989297;28;20241;-50
2022/03/23 05:31:23;;;;;;;22.93;17.60;;;;;;;3.71;62.58;102688.88;4988136;28;20241;-50
2022/03/23 05:33:49;;;;;;;24.10;17.70;;;;;;;3.74;62.52;102688.16;4987021;28;20248;-50
2022/03/23 05:36:16;;;;;;;25.07;18.53;;;;;;;3.77;62.12;102684.03;4987659;28;20234;-51
2022/03/23 05:38:43;;;;;;;28.10;18.03;;;;;;;3.85;62.16;102684.47;4988434;28;20241;-52
2022/03/23 05:41:09;;;;;;;27.20;17.27;;;;;;;3.99;61.31;102680.97;4988202;28;20252;-52
2022/03/23 05:43:36;;;;;;;23.50;17.77;;;;;;;4.08;61.45;102685.81;4988997;28;20238;-50
2022/03/23 05:46:02;;;;;;;31.17;19.60;;;;;;;4.13;62.30;102689.56;4988483;28;20249;-49
2022/03/23 05:48:35;;;;;;;32.50;21.67;;;;;;;4.06;62.18;102690.91;4988282;28;20288;-51
2022/03/23 05:51:03;;;;;;;35.83;21.20;;;;;;;4.10;62.32;102684.19;4988804;28;20853;-51
2022/03/23 05:53:30;;;;;;;28.10;19.67;;;;;;;4.11;63.76;102680.78;4985784;28;20288;-50
2022/03/23 05:55:56;;;;;;;31.37;21.10;;;;;;;4.12;63.12;102681.69;4990959;28;20772;-50
2022/03/23 05:58:23;;;;;;;35.63;21.63;;;;;;;4.17;62.17;102680.22;4988426;28;20308;-50
2022/03/23 06:00:49;;;;;;;31.43;20.80;;;;;;;4.17;62.22;102680.22;4990176;28;20229;-50
2022/03/23 06:03:16;;;;;;;29.73;21.40;;;;;;;4.18;61.97;102680.31;4987322;28;20244;-51
2022/03/23 06:05:43;;;;;;;37.87;22.53;;;;;;;4.28;62.47;102677.44;4988805;28;20234;-50
2022/03/23 06:08:10;;;;;;;39.47;21.40;;;;;;;4.33;62.01;102679.41;4987439;28;20238;-50
2022/03/23 06:10:38;;;;;;;33.17;20.60;;;;;;;4.41;62.05;102678.09;4987956;28;20233;-50
2022/03/23 06:13:05;;;;;;;30.30;20.23;;;;;;;4.36;61.25;102671.78;4987933;28;20276;-50
2022/03/23 06:15:37;;;;;;;31.43;21.47;;;;;;;4.32;61.59;102686.31;4986925;28;20237;-53
2022/03/23 06:18:03;;;;;;;31.50;20.17;;;;;;;4.33;61.10;102680.28;4987423;28;20233;-51
2022/03/23 06:20:31;;;;;;;32.00;20.03;;;;;;;4.37;61.08;102686.56;4986101;28;20226;-50
2022/03/23 06:22:59;;;;;;;33.13;22.03;;;;;;;4.45;60.57;102683.56;4984362;28;20242;-51
2022/03/23 06:25:26;;;;;;;23.60;18.10;;;;;;;4.57;59.63;102678.16;4985284;28;20241;-49
2022/03/23 06:27:52;;;;;;;26.70;18.20;;;;;;;4.59;58.83;102686.03;4986312;28;20238;-50
2022/03/23 06:30:19;;;;;;;28.07;20.20;;;;;;;4.66;59.04;102686.44;4986955;28;20324;-51
2022/03/23 06:32:45;;;;;;;25.13;19.47;;;;;;;4.74;58.42;102692.09;4985259;28;20246;-50
2022/03/23 06:35:12;;;;;;;27.43;20.43;;;;;;;4.77;58.03;102687.94;4987168;28;20240;-50
2022/03/23 06:37:38;;;;;;;25.37;18.00;;;;;;;4.84;57.44;102698.66;4986167;28;20237;-51
2022/03/23 06:40:07;;;;;;;24.77;17.83;;;;;;;4.97;56.87;102691.59;4984846;28;20230;-51
2022/03/23 06:42:34;;;;;;;28.30;18.77;;;;;;;5.05;56.30;102693.69;4986018;28;20249;-50
2022/03/23 06:45:01;;;;;;;27.30;18.73;;;;;;;5.10;56.73;102692.25;4985772;28;20234;-51
2022/03/23 06:47:27;;;;;;;24.13;19.23;;;;;;;5.19;55.99;102696.22;4986600;28;20247;-50
2022/03/23 06:49:54;;;;;;;29.77;17.57;;;;;;;5.28;55.94;102679.28;4986328;28;20671;-50
2022/03/23 06:52:20;;;;;;;24.97;18.10;;;;;;;5.35;55.63;102684.91;4986058;28;20233;-51
2022/03/23 06:54:46;;;;;;;25.93;18.47;;;;;;;5.47;55.29;102689.84;4986966;28;20323;-51
2022/03/23 06:57:14;;;;;;;26.73;20.27;;;;;;;5.62;54.14;102688.03;4985567;28;20233;-51
2022/03/23 06:59:41;;;;;;;23.80;18.17;;;;;;;5.77;54.08;102694.81;4986512;28;20238;-50
2022/03/23 07:02:08;;;;;;;26.77;19.90;;;;;;;5.89;53.61;102690.22;4985489;28;20225;-51
2022/03/23 07:04:34;;;;;;;29.07;19.97;;;;;;;6.01;53.37;102683.03;4985287;28;20252;-50
2022/03/23 07:07:01;;;;;;;30.60;21.13;;;;;;;6.10;53.34;102696.50;4986280;28;20269;-50
2022/03/23 07:09:32;;;;;;;30.73;22.30;;;;;;;6.25;53.36;102692.84;4986865;28;20803;-52
2022/03/23 07:11:59;;;;;;;31.20;22.37;;;;;;;6.35;53.28;102692.47;4985458;28;20321;-50
2022/03/23 07:14:27;;;;;;;28.07;21.77;;;;;;;6.50;53.06;102694.94;4982165;28;20253;-50
2022/03/23 07:16:54;;;;;;;30.33;22.50;;;;;;;6.69;52.59;102689.75;4983238;28;20255;-52
2022/03/23 07:19:20;;;;;;;28.83;21.33;;;;;;;6.86;51.69;102688.81;4985002;28;20269;-51
2022/03/23 07:21:47;;;;;;;22.90;19.13;;;;;;;6.92;51.82;102694.31;4984240;28;20308;-51
2022/03/23 07:24:13;;;;;;;25.90;19.57;;;;;;;7.00;51.81;102692.03;4984743;28;20655;-49
2022/03/23 07:26:39;;;;;;;28.10;21.37;;;;;;;7.29;50.49;102689.81;4982692;28;20735;-50
2022/03/23 07:29:06;;;;;;;30.30;19.80;;;;;;;7.35;50.16;102691.00;4984151;28;20241;-50
2022/03/23 07:31:34;;;;;;;25.30;18.53;;;;;;;7.71;50.83;102695.13;4982661;28;20720;-51
2022/03/23 07:34:02;;;;;;;23.30;17.70;;;;;;;7.89;47.98;102690.66;4981005;28;20292;-50
2022/03/23 07:36:29;;;;;;;27.63;17.90;;;;;;;8.32;49.29;102681.94;4984129;28;20236;-52
2022/03/23 07:38:55;;;;;;;26.03;17.80;;;;;;;8.50;47.42;102682.69;4982642;28;20685;-51
2022/03/23 07:41:22;;;;;;;25.80;17.87;;;;;;;8.60;46.05;102690.06;4982092;28;20297;-51
2022/03/23 07:43:49;;;;;;;27.17;18.50;;;;;;;8.75;46.87;102695.00;4973032;28;20292;-51
2022/03/23 07:46:17;;;;;;;24.20;17.70;;;;;;;8.85;44.32;102691.00;4980726;28;20234;-52
2022/03/23 07:48:45;;;;;;;27.30;17.50;;;;;;;9.04;45.75;102684.72;4981424;28;20271;-51
2022/03/23 07:51:11;;;;;;;20.97;17.83;;;;;;;9.17;43.77;102686.06;4984596;28;20229;-51
2022/03/23 07:53:38;;;;;;;24.23;18.57;;;;;;;9.25;42.96;102693.34;4983604;28;20241;-50
2022/03/23 07:56:05;;;;;;;23.57;17.70;;;;;;;9.36;42.83;102691.09;4989362;28;20230;-51
2022/03/23 07:58:31;;;;;;;25.20;18.87;;;;;;;9.59;41.81;102688.41;4982985;28;20755;-52
2022/03/23 08:00:57;;;;;;;26.60;17.77;;;;;;;9.71;41.73;102681.84;4987233;28;20242;-49
2022/03/23 08:03:24;;;;;;;28.10;18.27;;;;;;;9.84;41.35;102682.25;4980329;28;20296;-50
2022/03/23 08:05:54;;;;;;;24.30;20.37;;;;;;;9.92;42.14;102675.53;4978700;28;20225;-49
2022/03/23 08:08:22;;;;;;;22.47;18.03;;;;;;;10.16;41.11;102678.06;4982344;28;20638;-50
2022/03/23 08:10:48;;;;;;;21.10;18.07;;;;;;;10.36;40.62;102677.00;4983701;28;20265;-49
2022/03/23 08:13:16;;;;;;;27.93;17.80;;;;;;;10.28;41.26;102678.47;4984189;28;20714;-50
2022/03/23 08:15:43;;;;;;;26.37;16.90;;;;;;;10.50;39.23;102680.94;4983369;28;20613;-49
2022/03/23 08:18:09;;;;;;;24.20;17.57;;;;;;;10.70;39.27;102683.25;4981879;28;20623;-50
2022/03/23 08:20:36;;;;;;;21.00;16.87;;;;;;;10.99;38.08;102687.63;4983079;28;20712;-50
2022/03/23 08:23:05;;;;;;;23.63;16.57;;;;;;;11.21;37.81;102689.13;4984340;28;20233;-49
2022/03/23 08:25:32;;;;;;;22.38;18.13;;;;;;;11.31;37.37;102695.53;4982691;28;20237;-49
2022/03/23 08:27:59;;;;;;;22.42;18.25;;;;;;;11.34;36.88;102693.00;4981366;28;20316;-49
2022/03/23 08:30:26;;;;;;;24.77;17.85;;;;;;;11.67;36.65;102694.72;4981735;28;20348;-50
2022/03/23 08:32:53;;;;;;;22.98;17.70;;;;;;;11.67;36.47;102695.63;4984752;28;20246;-49
2022/03/23 08:35:20;;;;;;;23.90;17.65;;;;;;;11.96;36.17;102692.88;4981029;28;20234;-50
2022/03/23 08:37:48;;;;;;;22.67;18.20;;;;;;;12.05;35.45;102697.47;4983800;28;20288;-49
2022/03/23 08:40:15;;;;;;;22.83;18.25;;;;;;;12.21;35.62;102688.19;4982981;28;20230;-49
2022/03/23 08:42:42;;;;;;;18.08;16.17;;;;;;;12.38;35.00;102694.75;4983897;28;20242;-49
2022/03/23 08:45:10;;;;;;;21.90;17.65;;;;;;;12.31;34.83;102690.19;4983134;28;20229;-50
2022/03/23 08:47:38;;;;;;;22.77;17.50;;;;;;;12.48;34.71;102694.09;4981628;28;20274;-49
2022/03/23 08:50:07;;;;;;;19.08;17.05;;;;;;;12.63;34.21;102689.16;4980844;28;20256;-50
2022/03/23 08:52:34;;;;;;;29.02;19.52;;;;;;;12.44;34.29;102692.25;4983806;28;20308;-49
2022/03/23 08:55:00;;;;;;;29.38;19.42;;;;;;;12.34;34.15;102701.69;4983488;28;20246;-49
2022/03/23 08:57:28;;;;;;;21.83;16.67;;;;;;;12.56;33.95;102702.16;4978443;28;20697;-50
2022/03/23 08:59:54;;;;;;;23.55;18.02;;;;;;;12.69;33.73;102700.72;4985930;28;20291;-50
2022/03/23 09:02:21;;;;;;;20.35;16.65;;;;;;;12.71;33.74;102699.91;4990740;28;20268;-49
2022/03/23 09:04:47;;;;;;;21.33;16.63;;;;;;;12.80;33.32;102697.44;4984716;28;20238;-52
2022/03/23 09:07:13;;;;;;;24.02;17.63;;;;;;;12.59;32.78;102692.59;4986516;28;20312;-49
2022/03/23 09:09:40;;;;;;;24.98;18.05;;;;;;;12.90;32.75;102694.13;4984669;28;20296;-49
2022/03/23 09:12:09;;;;;;;19.55;17.27;;;;;;;13.25;32.94;102691.34;4981199;28;20376;-50
2022/03/23 09:14:37;;;;;;;21.90;18.30;;;;;;;13.63;31.97;102699.09;4981843;28;20290;-51
2022/03/23 09:17:04;;;;;;;26.60;18.92;;;;;;;13.66;31.24;102693.88;4981495;28;20230;-49
2022/03/23 09:19:31;;;;;;;26.13;20.13;;;;;;;13.99;31.46;102687.38;4980426;28;20441;-49
2022/03/23 09:21:59;;;;;;;23.67;19.33;;;;;;;13.87;30.88;102695.13;4983861;28;20225;-50
2022/03/23 09:24:26;;;;;;;20.45;17.63;;;;;;;14.12;31.52;102692.00;4983627;28;20461;-50
2022/03/23 09:26:53;;;;;;;25.33;19.88;;;;;;;14.48;30.38;102689.03;4983005;28;20497;-49
2022/03/23 09:29:19;;;;;;;20.27;16.85;;;;;;;14.29;30.06;102682.59;4983130;28;20846;-49
2022/03/23 09:31:47;;;;;;;21.17;17.35;;;;;;;14.48;30.26;102682.84;4987756;28;20237;-52
2022/03/23 09:34:14;;;;;;;23.67;17.60;;;;;;;14.79;29.77;102678.91;4986948;28;20802;-49
2022/03/23 09:39:24;;;;;;;24.25;18.90;;;;;;;14.76;28.29;102679.75;4983812;28;20312;-49
2022/03/23 09:41:50;;;;;;;19.05;17.10;;;;;;;15.17;28.55;102687.31;4988161;28;20433;-50
2022/03/23 09:44:18;;;;;;;22.35;17.05;;;;;;;15.13;28.75;102688.16;4986598;28;20311;-50
2022/03/23 09:46:44;;;;;;;22.20;18.10;;;;;;;15.25;28.68;102687.38;4986236;28;20647;-49
2022/03/23 09:49:12;;;;;;;20.08;17.90;;;;;;;15.36;28.36;102688.38;4985978;28;20253;-52
2022/03/23 09:51:40;;;;;;;19.52;17.17;;;;;;;15.53;28.43;102688.56;4987113;28;20917;-49
2022/03/23 09:54:07;;;;;;;22.75;19.90;;;;;;;15.44;29.07;102692.03;4986491;28;20430;-51
2022/03/23 09:56:34;;;;;;;21.73;19.43;;;;;;;15.75;28.33;102682.59;4983751;28;20442;-50
2022/03/23 09:59:03;;;;;;;21.90;18.83;;;;;;;15.38;28.78;102680.47;4985834;28;20244;-49
2022/03/23 10:02:22;;;;;;;22.63;18.50;;;;;;;15.57;28.27;102677.13;4985030;28;20230;-49
2022/03/23 10:05:35;;;;;;;22.67;18.95;;;;;;;15.56;28.28;102685.06;4981141;28;20222;-49
2022/03/23 10:08:41;;;;;;;25.23;19.48;;;;;;;15.34;28.39;102676.00;4985893;28;20222;-49
2022/03/23 10:11:53;;;;;;;29.10;20.95;;;;;;;15.22;28.34;102680.28;4959007;28;20280;-50
2022/03/23 10:14:57;;;;;;;31.52;21.65;;;;;;;15.46;27.87;102674.38;4983513;28;20744;-50
2022/03/23 10:17:44;;;;;;;24.27;19.15;;;;;;;15.62;27.97;102675.41;4984361;28;20225;-50
2022/03/23 10:20:12;;;;;;;22.65;19.17;;;;;;;15.69;27.82;102671.09;4985228;28;20242;-50
2022/03/23 10:22:45;;;;;;;27.95;20.80;;;;;;;15.71;27.53;102674.63;4984748;28;20241;-49
2022/03/23 10:25:13;;;;;;;28.67;20.52;;;;;;;15.72;28.60;102672.03;4985950;28;20241;-50
2022/03/23 10:27:39;;;;;;;23.95;19.13;;;;;;;15.81;28.21;102668.53;4983218;28;20707;-51
2022/03/23 10:30:07;;;;;;;26.38;20.02;;;;;;;15.91;27.66;102665.09;4985680;28;20264;-48
2022/03/23 10:32:36;;;;;;;25.13;20.58;;;;;;;15.91;27.35;102666.88;4981740;28;20749;-50
2022/03/23 10:35:05;;;;;;;24.45;21.08;;;;;;;16.10;27.62;102667.88;4984410;28;20959;-50
2022/03/23 10:37:34;;;;;;;26.10;22.15;;;;;;;16.05;28.00;102662.56;4986407;28;20257;-50
2022/03/23 10:40:02;;;;;;;20.70;18.02;;;;;;;16.11;28.22;102659.03;4984532;28;20230;-51
2022/03/23 10:42:35;;;;;;;21.30;18.77;;;;;;;16.25;27.47;102667.09;4984730;28;20234;-50
2022/03/23 10:45:10;;;;;;;25.98;20.48;;;;;;;16.28;27.36;102656.50;4986083;28;20238;-51
2022/03/23 10:47:37;;;;;;;24.65;18.90;;;;;;;16.35;26.84;102659.19;4984297;28;20241;-51
2022/03/23 10:50:12;;;;;;;25.58;19.25;;;;;;;16.37;27.66;102661.88;4984554;28;20226;-51
2022/03/23 10:52:55;;;;;;;22.90;20.47;;;;;;;16.44;27.30;102655.72;4980669;28;20429;-50
2022/03/23 10:55:24;;;;;;;22.85;19.73;;;;;;;16.67;26.39;102656.75;4982084;28;20471;-49
2022/03/23 10:58:18;;;;;;;23.63;19.00;;;;;;;16.69;27.06;102649.66;4985443;28;20230;-49
2022/03/23 11:00:45;;;;;;;23.52;18.77;;;;;;;16.82;26.06;102650.66;4979715;28;20237;-50
2022/03/23 11:03:11;;;;;;;25.50;20.58;;;;;;;17.09;25.73;102652.50;4994024;28;20285;-50
2022/03/23 11:05:40;;;;;;;21.80;18.75;;;;;;;17.09;25.23;102649.84;4985331;28;20240;-50
2022/03/23 11:08:09;;;;;;;22.38;19.98;;;;;;;16.90;25.63;102642.72;4984941;28;20249;-51
2022/03/23 11:16:09;;;;;;;22.75;19.20;;;;;;;17.33;25.84;102626.88;4983547;28;20300;-51
2022/03/23 11:18:36;;;;;;;24.48;19.45;;;;;;;16.98;25.67;102625.03;4984500;28;20234;-50
2022/03/23 11:21:02;;;;;;;23.02;19.83;;;;;;;16.87;25.78;102626.78;4984882;28;20226;-50
2022/03/23 11:23:31;;;;;;;22.75;20.40;;;;;;;17.28;25.52;102620.69;4982007;28;20450;-50
2022/03/23 11:26:00;;;;;;;20.92;18.30;;;;;;;17.28;25.94;102616.25;4984465;28;20656;-49
2022/03/23 11:28:28;;;;;;;21.65;18.70;;;;;;;17.47;25.56;102611.84;4985277;28;20880;-50
2022/03/23 11:30:55;;;;;;;23.00;20.50;;;;;;;17.34;25.64;102612.72;4983593;28;20522;-51
2022/03/23 11:33:24;;;;;;;23.48;19.77;;;;;;;16.88;25.36;102617.91;4984449;28;20238;-50
2022/03/23 11:35:52;;;;;;;21.35;18.13;;;;;;;17.08;25.80;102618.88;4983817;28;20233;-49
2022/03/23 11:38:19;;;;;;;22.10;19.65;;;;;;;17.32;25.81;102611.84;4984130;28;20234;-50